Weather at Synopi Airstrip

Public forecast

Using degrees Celsius for public forecast. Weather courtesy of forecast.io.

Closest aviation weather report (METAR) to Synopi Airstrip

Closest report is Frans Kaisiepo Airport, 192.2 nm (355.9 km) E. Retrieved 2022/01/17 15:00 UTC (28 minutes ago):

WABB 171500Z 24011KT 060V240 8000 -RA BKN018 BKN100 27/24 Q1008 NOSIG

Closest aviation forecast (TAF) to Synopi Airstrip

Closest forecast is Rendani Airport, 67.5 nm (125.0 km) E. Retrieved UTC (0 seconds ago):